Latest Weather Observations for Hobart Airport

IDT60801

Issued at 2:35 pm EST Saturday 26 July 2014 (issued every 30 minutes, with the page automatically refreshed every 10 minutes)

About weather observations | Map of weather stations | Latest weather observations for TAS | Other Formats
Station Details ID: 094008 Name: HOBART AIRPORT Lat: -42.83 Lon: 147.50 Height: 4.0 m
Data from the previous 72 hours. | See also: Recent months at Hobart Airport
Date/Time
EST
Temp
°C
App
Temp
°C
Dew
Point
Rel
Hum
%
Delta-T
°C
Wind Press
QNH
hPa
Press
MSL
hPa
Rain
since 9 am
mm
Dir
 
Spd
km/h
Gust
km/h
Spd
kts
Gust
kts
26/02:30pm 12.8 10.6 7.9 72 2.4 NNE 9 11 5 6 1019.4 - 0.0
26/02:00pm 13.3 11.2 8.3 72 2.5 ESE 9 13 5 7 1019.4 1019.5 0.0
26/01:30pm 12.9 12.1 8.0 72 2.4 NE 2 9 1 5 1019.6 - 0.0
26/01:00pm 12.9 11.0 7.6 70 2.6 NNE 7 7 4 4 1019.7 1019.8 0.0
26/12:30pm 11.0 9.3 7.5 79 1.7 NNW 6 7 3 4 1020.1 - 0.0
26/12:00pm 11.2 9.3 7.4 77 1.8 NW 7 9 4 5 1020.5 1020.6 0.0
26/11:30am 11.6 9.8 7.2 74 2.1 NW 6 7 3 4 1020.7 - 0.0
26/11:00am 10.4 8.0 7.0 79 1.6 WNW 9 11 5 6 1021.2 1021.3 0.0
26/10:30am 9.6 6.8 6.8 83 1.3 WNW 11 13 6 7 1021.1 - 0.0
26/10:00am 9.0 6.5 6.6 85 1.1 NNW 9 13 5 7 1021.0 1021.1 0.0
26/09:30am 7.8 4.9 6.3 90 0.7 WNW 11 13 6 7 1021.0 - 0.0
26/09:00am 7.3 5.6 6.0 91 0.6 NW 4 7 2 4 1020.8 1020.9 0.4
26/08:30am 6.6 3.9 5.5 93 0.5 NW 9 13 5 7 1020.6 - 0.4
26/08:00am 5.7 3.4 4.8 94 0.4 NNW 6 11 3 6 1020.4 1020.5 0.4
26/07:30am 5.7 3.4 5.0 95 0.3 NW 6 9 3 5 1020.3 - 0.4
26/07:00am 5.6 2.4 4.9 95 0.3 NW 11 15 6 8 1019.9 1020.0 0.4
26/06:30am 5.3 2.4 4.6 95 0.3 W 9 11 5 6 1019.8 - 0.4
26/06:00am 5.0 2.1 4.5 97 0.2 NNW 9 9 5 5 1019.7 1019.8 0.4
26/05:30am 5.0 3.4 4.3 95 0.3 NW 2 9 1 5 1019.6 - 0.4
26/05:00am 6.2 3.8 5.3 94 0.4 NW 7 11 4 6 1019.6 1019.7 0.4
26/04:30am 6.5 4.7 5.6 94 0.4 WNW 4 9 2 5 1019.5 - 0.4
26/04:00am 6.4 3.3 5.5 94 0.4 W 11 15 6 8 1019.2 1019.3 0.4
26/03:30am 6.1 3.9 5.2 94 0.4 WNW 6 7 3 4 1019.2 - 0.4
26/03:00am 6.0 3.2 5.3 95 0.3 NW 9 11 5 6 1019.1 1019.2 0.4
26/02:30am 6.3 3.9 5.4 94 0.4 NNW 7 11 4 6 1019.3 - 0.4
26/02:00am 6.0 3.6 5.3 95 0.3 NW 7 13 4 7 1019.1 1019.2 0.4
26/01:30am 5.8 2.2 5.1 95 0.3 WNW 13 15 7 8 1019.0 - 0.4
26/01:00am 5.9 2.7 5.2 95 0.3 NNW 11 17 6 9 1018.9 1019.0 0.4
26/12:30am 5.8 3.4 5.1 95 0.3 NW 7 11 4 6 1019.2 - 0.4
26/12:00am 6.2 3.9 5.5 95 0.3 NW 7 13 4 7 1019.3 1019.4 0.4
 
Date/Time
EST
Temp
°C
App
Temp
°C
Dew
Point
Rel
Hum
%
Delta-T
°C
Wind Press
QNH
hPa
Press
MSL
hPa
Rain
since 9 am
mm
Dir
 
Spd
km/h
Gust
km/h
Spd
kts
Gust
kts
25/11:30pm 6.1 3.7 5.4 95 0.3 NW 7 9 4 5 1019.3 - 0.4
25/11:00pm 6.1 3.4 5.6 97 0.2 WNW 9 13 5 7 1019.1 1019.2 0.4
25/10:30pm 6.5 3.9 6.1 97 0.2 NW 9 11 5 6 1018.9 - 0.4
25/10:00pm 6.6 4.0 6.2 97 0.2 NNW 9 9 5 5 1019.0 1019.1 0.4
25/09:30pm 6.3 4.2 5.6 95 0.3 N 6 7 3 4 1019.0 - 0.4
25/09:00pm 6.6 4.9 5.9 95 0.3 N 4 9 2 5 1019.0 1019.1 0.4
25/08:30pm 7.2 6.4 6.5 95 0.3 CALM 0 6 0 3 1018.7 - 0.4
25/08:00pm 8.5 8.0 7.7 95 0.4 CALM 0 6 0 3 1018.7 1018.8 0.4
25/07:30pm 8.1 5.8 7.5 96 0.3 NNE 9 11 5 6 1018.2 - 0.4
25/07:00pm 9.5 9.0 8.0 90 0.7 CALM 0 0 0 0 1018.1 1018.2 0.4
25/06:30pm 11.1 10.3 8.2 82 1.4 W 2 7 1 4 1017.6 - 0.4
25/06:00pm 11.1 9.5 8.9 86 1.1 WNW 7 7 4 4 1017.6 1017.7 0.4
25/05:30pm 11.3 8.9 8.7 84 1.3 WNW 11 13 6 7 1017.6 - 0.4
25/05:00pm 11.6 10.0 8.8 83 1.4 NNW 7 9 4 5 1017.3 1017.4 0.2
25/04:30pm 12.2 10.7 9.2 82 1.5 NNW 7 11 4 6 1017.2 - 0.2
25/04:00pm 12.6 10.7 9.0 79 1.8 WNW 9 9 5 5 1017.3 1017.4 0.2
25/03:30pm 11.9 11.7 8.9 82 1.5 CALM 0 0 0 0 1016.9 - 0.2
25/03:00pm 12.8 12.1 8.4 74 2.2 ENE 2 7 1 4 1016.7 1016.8 0.0
25/02:30pm 12.7 9.8 8.3 74 2.2 SE 13 15 7 8 1016.5 - 0.0
25/02:00pm 11.7 9.6 8.2 79 1.7 SSE 9 17 5 9 1016.6 1016.7 0.0
25/01:30pm 13.9 12.1 8.1 68 2.9 NW 7 9 4 5 1016.6 - 0.0
25/01:00pm 13.0 10.8 7.7 70 2.6 NW 9 11 5 6 1016.8 1016.9 0.0
25/12:30pm 12.0 9.6 7.2 72 2.3 NW 9 11 5 6 1017.1 - 0.0
25/12:00pm 11.2 8.8 6.8 74 2.1 NW 9 11 5 6 1017.6 1017.7 0.0
25/11:30am 9.0 6.0 6.2 82 1.3 NW 11 15 6 8 1018.0 - 0.0
25/11:00am 8.0 4.6 5.8 86 1.0 NW 13 15 7 8 1018.3 1018.4 0.0
25/10:30am 7.5 2.8 5.2 85 1.0 WNW 19 22 10 12 1018.4 - 0.0
25/10:00am 7.1 2.4 5.3 88 0.8 WNW 19 22 10 12 1018.6 1018.7 0.0
25/09:30am 6.2 1.8 4.6 89 0.7 WNW 17 19 9 10 1018.3 - 0.0
25/09:00am 5.5 2.2 4.3 92 0.5 WNW 11 15 6 8 1018.4 1018.5 0.0
25/08:30am 5.3 2.9 4.4 94 0.4 N 6 7 3 4 1018.6 - 0.0
25/08:00am 4.9 2.2 3.7 92 0.5 NNW 7 11 4 6 1018.0 1018.1 0.0
25/07:30am 4.6 0.7 3.6 93 0.4 WNW 13 17 7 9 1017.7 - 0.0
25/07:00am 4.8 0.9 3.3 90 0.6 NW 13 17 7 9 1017.5 1017.6 0.0
25/06:30am 4.3 0.8 3.3 93 0.4 WNW 11 13 6 7 1017.5 - 0.0
25/06:00am 4.4 1.3 3.4 93 0.4 NNW 9 15 5 8 1017.6 1017.7 0.0
25/05:30am 4.0 0.8 3.3 95 0.3 NW 9 11 5 6 1017.3 - 0.0
25/05:00am 3.4 0.5 2.6 94 0.3 WNW 7 11 4 6 1017.5 1017.6 0.0
25/04:30am 3.5 -0.2 2.5 93 0.4 NW 11 15 6 8 1017.7 - 0.0
25/04:00am 3.4 0.5 2.6 94 0.3 WNW 7 9 4 5 1017.3 1017.4 0.0
25/03:30am 3.5 -0.5 2.8 95 0.3 NNW 13 17 7 9 1017.7 - 0.0
25/03:00am 3.5 0.6 2.8 95 0.3 NW 7 11 4 6 1017.7 1017.8 0.0
25/02:30am 4.0 0.4 3.0 93 0.4 NW 11 15 6 8 1017.9 - 0.0
25/02:00am 4.2 -0.4 3.5 95 0.3 NW 17 20 9 11 1018.0 1018.1 0.0
25/01:30am 3.8 0.6 3.1 95 0.3 NW 9 13 5 7 1017.8 - 0.0
25/01:00am 4.0 0.8 3.0 93 0.4 NW 9 13 5 7 1018.1 1018.2 0.0
25/12:30am 3.9 0.7 2.9 93 0.4 NW 9 9 5 5 1018.4 - 0.0
25/12:00am 4.3 0.4 3.3 93 0.4 WNW 13 17 7 9 1018.5 1018.6 0.0
 
Date/Time
EST
Temp
°C
App
Temp
°C
Dew
Point
Rel
Hum
%
Delta-T
°C
Wind Press
QNH
hPa
Press
MSL
hPa
Rain
since 9 am
mm
Dir
 
Spd
km/h
Gust
km/h
Spd
kts
Gust
kts
24/11:30pm 4.4 1.2 3.2 92 0.5 WNW 9 11 5 6 1018.9 - 0.0
24/11:00pm 4.9 1.0 3.5 91 0.6 NW 13 17 7 9 1019.0 1019.1 0.0
24/10:30pm 5.1 0.9 3.7 91 0.6 NW 15 19 8 10 1018.9 - 0.0
24/10:00pm 5.5 1.7 3.8 89 0.7 NW 13 15 7 8 1019.0 1019.1 0.0
24/09:30pm 5.0 0.8 3.8 92 0.5 WNW 15 17 8 9 1018.9 - 0.0
24/09:00pm 5.3 2.3 4.1 92 0.5 NW 9 11 5 6 1018.9 1019.0 0.0
24/08:30pm 5.8 2.4 3.9 88 0.8 WNW 11 13 6 7 1018.8 - 0.0
24/08:00pm 6.4 3.9 4.5 88 0.8 NW 7 11 4 6 1018.6 1018.7 0.0
24/07:30pm 6.8 3.9 4.7 86 0.9 NW 9 11 5 6 1018.5 - 0.0
24/07:00pm 7.1 3.8 4.6 84 1.1 NW 11 13 6 7 1018.4 1018.5 0.0
24/06:30pm 7.2 4.2 4.2 81 1.3 NW 9 11 5 6 1018.4 - 0.0
24/06:00pm 6.9 4.0 4.4 84 1.1 N 9 11 5 6 1018.3 1018.4 0.0
24/05:30pm 6.7 4.4 4.9 88 0.8 N 6 7 3 4 1018.2 - 0.0
24/05:00pm 8.5 5.1 4.1 74 1.9 NW 11 13 6 7 1018.1 1018.2 0.0
24/04:30pm 9.0 5.6 4.2 72 2.1 NW 11 11 6 6 1018.2 - 0.0
24/04:00pm 9.6 6.2 4.1 68 2.4 NW 11 13 6 7 1018.0 1018.1 0.0
24/03:30pm 9.7 6.2 3.7 66 2.6 NW 11 13 6 7 1017.9 - 0.0
24/03:00pm 9.7 6.0 4.5 70 2.3 NW 13 15 7 8 1017.9 1018.0 0.0
24/02:30pm 9.9 6.1 4.0 67 2.6 NW 13 15 7 8 1017.9 - 0.0
24/02:00pm 10.3 6.5 3.7 63 2.9 WNW 13 15 7 8 1017.9 1018.0 0.0
24/01:30pm 9.7 6.2 3.5 65 2.7 NW 11 11 6 6 1018.4 - 0.0
24/01:00pm 10.1 6.6 3.7 64 2.8 NW 11 13 6 7 1018.7 1018.8 0.0
24/12:30pm 9.3 5.1 3.8 68 2.4 NW 15 17 8 9 1019.1 - 0.0
24/12:00pm 9.8 7.1 3.9 66 2.6 N 7 11 4 6 1019.4 1019.5 0.0
24/11:30am 9.3 6.8 3.5 67 2.5 NE 6 9 3 5 1019.8 - 0.0
24/11:00am 8.1 5.3 3.1 71 2.1 NE 7 9 4 5 1020.2 1020.3 0.0
24/10:30am 7.1 4.0 3.6 78 1.5 NW 9 11 5 6 1020.4 - 0.0
24/10:00am 6.3 2.1 3.7 83 1.1 NW 15 19 8 10 1020.6 1020.7 0.0
24/09:30am 5.3 2.4 2.6 83 1.1 NNW 7 11 4 6 1020.5 - 0.0
24/09:00am 3.5 -0.3 1.7 88 0.7 WNW 11 13 6 7 1020.4 1020.5 0.0
24/08:30am 3.1 -0.7 1.5 89 0.6 NW 11 15 6 8 1020.3 - 0.0
24/08:00am 2.5 -1.4 0.9 89 0.6 NW 11 17 6 9 1020.0 1020.1 0.0
24/07:30am 2.1 -1.1 1.0 92 0.4 W 7 9 4 5 1020.1 - 0.0
24/07:00am 2.3 -1.2 1.0 91 0.5 NW 9 11 5 6 1020.0 1020.1 0.0
24/06:30am 2.4 -1.5 1.4 93 0.4 NW 11 13 6 7 1019.9 - 0.0
24/06:00am 1.8 -1.3 1.3 96 0.2 NW 7 9 4 5 1019.8 1019.9 0.0
24/05:30am 2.6 -0.8 1.6 93 0.4 WNW 9 11 5 6 1019.8 - 0.0
24/05:00am 2.7 -1.1 1.7 93 0.4 NW 11 13 6 7 1019.8 1019.9 0.0
24/04:30am 1.7 -2.6 0.9 94 0.3 NW 13 15 7 8 1019.8 - 0.0
24/04:00am 2.1 -1.0 1.6 96 0.2 WNW 7 11 4 6 1019.7 1019.8 0.0
24/03:30am 2.3 -2.0 1.2 92 0.4 NW 13 13 7 7 1019.7 - 0.0
24/03:00am 3.0 -0.4 2.0 93 0.4 NNW 9 13 5 7 1019.8 1019.9 0.0
24/02:30am 3.3 -0.1 2.0 91 0.5 NW 9 13 5 7 1020.1 - 0.0
24/02:00am 3.6 1.2 2.1 90 0.6 NW 4 9 2 5 1020.1 1020.2 0.0
24/01:30am 2.9 -0.1 2.1 94 0.3 N 7 11 4 6 1020.1 - 0.0
24/01:00am 3.5 -1.3 2.5 93 0.4 NW 17 19 9 10 1020.3 1020.4 0.0
24/12:30am 3.7 0.4 2.4 91 0.5 NW 9 13 5 7 1020.4 - 0.0
24/12:00am 4.1 1.4 2.9 92 0.5 NW 6 9 3 5 1020.7 1020.8 0.0
 
Date/Time
EST
Temp
°C
App
Temp
°C
Dew
Point
Rel
Hum
%
Delta-T
°C
Wind Press
QNH
hPa
Press
MSL
hPa
Rain
since 9 am
mm
Dir
 
Spd
km/h
Gust
km/h
Spd
kts
Gust
kts
23/11:30pm 4.3 0.8 3.3 93 0.4 NW 11 15 6 8 1020.9 - 0.0
23/11:00pm 4.9 0.2 3.2 89 0.7 NW 17 19 9 10 1021.2 1021.3 0.0
23/10:30pm 5.0 0.3 3.0 87 0.8 NW 17 19 9 10 1021.2 - 0.0
23/10:00pm 4.8 1.2 3.1 89 0.7 NW 11 13 6 7 1021.4 1021.5 0.0
23/09:30pm 5.0 1.5 3.3 89 0.7 WNW 11 13 6 7 1021.6 - 0.0
23/09:00pm 4.8 1.3 3.6 92 0.5 NW 11 15 6 8 1021.5 1021.6 0.0
23/08:30pm 5.7 2.3 4.0 89 0.7 WNW 11 13 6 7 1021.7 - 0.0
23/08:00pm 5.9 2.6 4.5 91 0.6 NW 11 13 6 7 1021.6 1021.7 0.0
23/07:30pm 4.8 2.1 3.8 93 0.4 WNW 7 7 4 4 1021.6 - 0.0
23/07:00pm 4.6 1.9 3.9 95 0.3 NW 7 9 4 5 1021.4 1021.5 0.0
23/06:30pm 5.9 4.6 4.3 89 0.7 CALM 0 0 0 0 1021.2 - 0.0
23/06:00pm 7.0 5.9 5.2 88 0.8 CALM 0 0 0 0 1021.3 1021.4 0.0
23/05:30pm 8.4 6.3 6.0 85 1.1 S 6 7 3 4 1021.3 - 0.0
23/05:00pm 9.4 7.1 5.9 79 1.6 S 7 7 4 4 1021.2 1021.3 0.0
23/04:30pm 10.3 7.7 6.2 76 1.9 S 9 9 5 5 1021.1 - 0.0
23/04:00pm 11.7 8.6 5.4 65 2.9 SSE 11 13 6 7 1021.1 1021.2 0.0
23/03:30pm 12.2 9.1 5.5 63 3.1 SE 11 13 6 7 1021.0 - 0.0
23/03:00pm 12.5 9.1 5.9 64 3.1 SSE 13 13 7 7 1020.9 1021.0 0.0

Other Formats:

Comma delimited format used in spreadsheet applications
http://www.bom.gov.au/fwo/IDT60801/IDT60801.94975.axf

JavaScript Object Notation format (JSON) in row-major order
http://www.bom.gov.au/fwo/IDT60801/IDT60801.94975.json